CheckWX is a tool to help pilots better visualize weather data.  It is not intended as a substitute for an official pre-flight weather briefing.

09:54:38 UTC

GVSV METAR
São Pedro Airport
São Pedro, Cape Verde
Current

55 mins ago

GVSV 190900Z 08004KT 050V110 9000 FEW018 26/23 Q1014 NOSIG
Observed
Aug-19 @ 09:00 UTC
Wind
  • 080° at 4 KTS
Visibility
9,000 meters
Flight Rules
VFR
Cloud Levels
  • Few at 1,800' AGL
Temperature
26°C / 79°F
Dewpoint
23°C / 73°F
Humidity
84%
Altimeter
29.94" Hg
Pressure
1013.92 hPa
Previous

2 hours ago

GVSV 190800Z VRB02KT 9000 FEW020 25/22 Q1014 NOSIG
Observed
Aug-19 @ 08:00 UTC
Wind
  • Variable at 2 KTS
Visibility
9,000 meters
Flight Rules
VFR
Cloud Levels
  • Few at 2,000' AGL
Temperature
25°C / 77°F
Dewpoint
22°C / 72°F
Humidity
83%
Altimeter
29.94" Hg
Pressure
1013.92 hPa
Previous

3 hours ago

GVSV 190700Z 10003KT 9999 SCT020 24/22 Q1013 NOSIG
Observed
Aug-19 @ 07:00 UTC
Wind
  • 100° at 3 KTS
Visibility
10,000+ meters
Flight Rules
VFR
Cloud Levels
  • Scattered at 2,000' AGL
Temperature
24°C / 75°F
Dewpoint
22°C / 72°F
Humidity
89%
Altimeter
29.91" Hg
Pressure
1012.92 hPa